Aérodrome :
LOGIN :

S'inscrire | Disclaimer

   EN    FR    IT 

 










Légende :    VFR   VFR Marginal   IFR   IFR Intensif   IFR Très Intensif
Visi : 
Plafond : 
>= 8 km
>= 3000ft
5 à 8 km
1000 à 3000 ft
1500m à 5 km
500 à 1000 ft
800 à 1500m
200 à 500 ft
< 800m
< 200 ft
Symboles :   Orages  Brouillard  Fortes neiges  Fortes précipitations  Vent > 20 kt
SIGMETs :   Divers  Orages  Givrage  Turbulence  Onde Orograph.  Cendres Volcan.







- Altitude de l'aérodrome : 55 ft
- Code IATA : DSA
- Voir les cartes d'approche


EGCN - Robin Hood Doncaster Sheffield

DERNIER METAR :
  • 140950Z 26010KT 240V300 9999 SCT026 BKN046 21/14 Q1014

METARs EXPIRÉS :
  • 140920Z 24009KT 210V280 9999 FEW026 SCT034 21/14 Q1015
  • 140850Z 25010KT 9999 SCT029 BKN043 20/13 Q1015
  • 140820Z 26009KT 9999 FEW024 19/13 Q1014
  • 140750Z 28007KT 240V310 9999 FEW035 19/13 Q1014
  • 140720Z 26006KT 9999 FEW042 18/13 Q1014

TAF TAF EGCN
Valide du 14 à 06h jusqu'au 15 à 06h UTC


140455Z 1406/1506 29009KT 9999 SCT030
Pas de NOTAMs connus pour ce terrain.



MET'MAP, la Météo Aéronautique d'un coup d'oeil ! - Copyright ORBIFLY Décembre 2007 - Disclaimer

ORBIFLY MET'MAP TEAM :

Programmation & Développement : Alexandra Zaïnal
Conception & Développement : Baudouin d'Aumeries
Co-Programmation & Développement : Marc-Olivier Méhu
Soutien technique & logistique : Manuel Goepfert

Contact : metmap@orbifly.com




SOURCES & CREDITS :

   NOAA